Terminal Aerodrome Forecast
Issued by NWS

Home | Current Version | Previous Version | Text Only | Print | Product List | Glossary On
Versions: 1 2 3 4 5 6 7 8 9 10 11 12 13 14 15 16
548
FTUS45 KRIW 152327
TAFBPI
TAF
KBPI 152327Z 1600/1624 VRB06KT P6SM BKN200
     FM160200 02007KT P6SM BKN070 OVC150
     FM161000 VRB06KT 5SM -SN OVC025
     FM161300 VRB06KT 2SM -SN SCT006 OVC012
     FM161700 34010KT 5SM -SN OVC015=

USA.gov is the U.S. government's official web portal to all federal, state and local government web resources and services.